• Join FlightAware (Why Join?)
  • Login
  • US Flag 
06:55AM EDT


 

Airport Tracker/Info


-or-


 

Live Flight TrackerFlight Track Log ✈ N137TK ✈ 23-Jun-2013 ✈ KCOI - KAVL

Flight Track Log - Related Links

Times and Time Zones

All times are in EDT time to prevent confusion due to time zone crossing. See the N137TK flight status page for this flight to view local times or setup timezone preferences in your user account.

Time Position Orientation Groundspeed Altitude Reporting Facility
EDT Latitude Longitude Course Direction KTS MPH feet Rate Location/Type
12:17PM 28.4167 -80.7333 310° West 180 207 5,100  Level Orlando TRACON
12:18PM 28.4500 -80.7833 307° West 191 220 7,000 1,800 Climbing Orlando TRACON
12:20PM 28.4844 -80.8567 298° West 180 207 9,900 1,800 Climbing Jacksonville Center
12:21PM 28.4936 -80.9181 280° West 185 213 11,800 1,620 Climbing Jacksonville Center
12:22PM 28.5008 -80.9839 277° West 201 231 13,200 1,740 Climbing Jacksonville Center
12:23PM 28.5269 -81.0472 295° West 206 237 15,300 1,620 Climbing Jacksonville Center
12:24PM 28.5731 -81.0653 341° North 189 217 16,500 1,320 Climbing Jacksonville Center
12:25PM 28.6278 -81.0903 338° Northwest 197 227 18,000 1,500 Climbing Jacksonville Center
12:26PM 28.6842 -81.1083 344° North 203 234 19,500 1,380 Climbing Jacksonville Center
12:27PM 28.7386 -81.1214 348° North 203 234 20,800 900 Climbing Jacksonville Center
12:28PM 28.8036 -81.1369 348° North 212 244 21,400 1,080 Climbing Jacksonville Center
12:29PM 28.8644 -81.1500 349° North 224 258 23,000 780 Climbing Jacksonville Center
12:30PM 28.9292 -81.1656 348° North 224 258 23,000  Level Jacksonville Center
12:31PM 29.0025 -81.1856 347° North 240 276 23,000  Level Jacksonville Center
12:32PM 29.0800 -81.2008 350° North 259 298 23,000  Level Jacksonville Center
12:33PM 29.1575 -81.2233 346° North 273 314 23,000  Level Jacksonville Center
12:34PM 29.2350 -81.2433 347° North 278 320 23,000  Level Jacksonville Center
12:35PM 29.3125 -81.2589 350° North 278 320 23,000 660 Level Jacksonville Center
12:36PM 29.3878 -81.2792 347° North 278 320 24,400 1,440 Climbing Jacksonville Center
12:37PM 29.4464 -81.2900 351° North 244 281 25,900 1,200 Climbing Jacksonville Center
12:38PM 29.5008 -81.3058 346° North 219 252 26,900 540 Climbing Jacksonville Center
12:39PM 29.5658 -81.3214 348° North 212 244 27,000  Climbing Jacksonville Center
12:40PM 29.6328 -81.3394 347° North 228 262 27,000  Level Jacksonville Center
12:41PM 29.7103 -81.3575 349° North 256 295 27,000  Level Jacksonville Center
12:42PM 29.7856 -81.3753 348° North 266 306 27,000  Level Jacksonville Center
12:43PM 29.8611 -81.3933 348° North 271 312 27,000  Level Jacksonville Center
12:44PM 29.9386 -81.4136 347° North 276 318 27,000  Level Jacksonville Center
12:45PM 30.0222 -81.4317 349° North 276 318 27,000  Level Jacksonville Center
12:46PM 30.0933 -81.4522 346° North 276 318 27,000  Level Jacksonville Center
12:47PM 30.1689 -81.4775 344° North 276 318 27,000  Level Jacksonville Center
12:48PM 30.2361 -81.5197 332° Northwest 276 318 27,000  Level Jacksonville Center
12:49PM 30.3097 -81.5572 336° Northwest 276 318 27,000  Level Jacksonville Center
12:50PM 30.3850 -81.5850 342° North 276 318 27,000  Level Jacksonville Center
12:51PM 30.4606 -81.6153 341° North 276 318 27,000  Level Jacksonville Center
12:52PM 30.5381 -81.6456 341° North 276 318 27,000  Level Jacksonville Center
12:53PM 30.6136 -81.6711 344° North 286 329 27,000  Level Jacksonville Center
12:54PM 30.6994 -81.7014 343° North 291 335 27,000  Level Jacksonville Center
12:55PM 30.7747 -81.7294 342° North 291 335 27,000  Level Jacksonville Center
12:56PM 30.8503 -81.7578 342° North 291 335 27,000  Level Jacksonville Center
12:57PM 30.9278 -81.7833 344° North 291 335 27,000  Level Jacksonville Center
12:58PM 31.0031 -81.8117 342° North 291 335 27,000  Level Jacksonville Center
12:59PM 31.0806 -81.8375 344° North 286 329 27,000  Level Jacksonville Center
01:00PM 31.1561 -81.8633 344° North 276 318 27,000  Level Jacksonville Center
01:01PM 31.2333 -81.8892 344° North 287 330 27,000  Level Jacksonville Center
01:02PM 31.3108 -81.9175 343° North 285 328 27,000  Level Jacksonville Center
01:03PM 31.3864 -81.9411 345° North 285 328 27,000  Level Jacksonville Center
01:04PM 31.4617 -81.9669 344° North 285 328 27,000  Level Jacksonville Center
01:05PM 31.5308 -81.9956 341° North 285 328 27,000  Level Jacksonville Center
01:06PM 31.6186 -82.0289 342° North 285 328 27,000  Level Jacksonville Center
01:07PM 31.6856 -82.0478 346° North 285 328 27,000  Level Jacksonville Center
01:08PM 31.7694 -82.0789 343° North 285 328 27,000  Level Jacksonville Center
01:10PM 31.9197 -82.1303 344° North 301 346 27,000  Level Atlanta Center
01:11PM 32.0014 -82.1531 347° North 291 335 27,000  Level Atlanta Center
01:12PM 32.0769 -82.1783 344° North 291 335 27,000  Level Atlanta Center
01:13PM 32.1567 -82.2036 345° North 285 328 27,000  Level Atlanta Center
01:14PM 32.2322 -82.2292 344° North 285 328 27,000  Level Atlanta Center
01:15PM 32.3097 -82.2522 346° North 285 328 27,000  Level Atlanta Center
01:16PM 32.3872 -82.2753 346° North 285 328 27,000  Level Atlanta Center
01:17PM 32.4647 -82.2983 346° North 285 328 27,000  Level Atlanta Center
01:18PM 32.5444 -82.3239 345° North 285 328 27,000  Level Atlanta Center
01:19PM 32.6242 -82.3494 345° North 285 328 27,000 -60 Level Atlanta Center
01:20PM 32.7017 -82.3703 347° North 285 328 26,900  Descending Atlanta Center
01:21PM 32.7853 -82.3883 350° North 285 328 27,000  Climbing Atlanta Center
01:22PM 32.8672 -82.4092 348° North 285 328 27,000  Level Atlanta Center
01:23PM 32.9444 -82.4275 349° North 290 334 27,000  Level Atlanta Center
01:24PM 33.0261 -82.4483 348° North 290 334 27,000  Level Atlanta Center
01:25PM 33.1100 -82.4592 354° North 295 339 27,000  Level Atlanta Center
01:26PM 33.1914 -82.4675 355° North 295 339 27,000  Level Atlanta Center
01:27PM 33.2731 -82.4783 354° North 295 339 27,000  Level Atlanta Center
01:28PM 33.3564 -82.4844 356° North 295 339 27,000  Level Atlanta Center
01:29PM 33.4381 -82.4881 358° North 288 331 27,000  Level Atlanta Center
01:30PM 33.5214 -82.4864 North 295 339 27,000  Level Atlanta Center
01:31PM 33.6050 -82.4925 357° North 295 339 27,000  Level Atlanta Center
01:32PM 33.6781 -82.4911 North 300 345 27,000 -420 Level Atlanta Center
01:33PM 33.7617 -82.4947 358° North 305 351 26,200 -600 Descending Atlanta Center
01:34PM 33.8533 -82.4981 358° North 310 357 25,800 -1,020 Descending Atlanta Center
01:35PM 33.9433 -82.4989 360° North 310 357 24,200 -1,500 Descending Atlanta Center
01:36PM 34.0289 -82.4997 360° North 310 357 22,900 -1,500 Descending Atlanta Center
01:37PM 34.1292 -82.5056 357° North 312 359 21,300 -1,560 Descending Atlanta Center
01:38PM 34.2189 -82.5064 360° North 317 365 19,800 -1,500 Descending Atlanta Center
01:39PM 34.3044 -82.5097 358° North 317 365 18,300 -1,380 Descending Atlanta Center
01:40PM 34.3897 -82.4958 North 311 358 17,100 -1,380 Descending Atlanta Center
01:41PM 34.4814 -82.4839 North 311 358 15,600 -1,500 Descending Atlanta Center
01:42PM 34.5647 -82.4697 North 311 358 14,100 -1,380 Descending Atlanta Center
01:43PM 34.6483 -82.4658 North 311 358 12,900 -1,200 Descending Atlanta Center
01:44PM 34.7294 -82.4642 North 299 344 11,800 -1,140 Descending Atlanta Center
01:45PM 34.8089 -82.4653 359° North 289 333 10,700 -840 Descending Atlanta Center
01:47PM 34.9611 -82.4622 North 271 312 9,400 -660 Descending Atlanta Center
01:49PM 35.0919 -82.4840 North  Level Estimated
01:56PM 35.4333 -82.5333 North  Level FlightAware Approximate
01:57PM 35.4362 -82.5418 North  Level Estimated
01:58PM 35.4362 -82.5418 North  Level Estimated
01:59PM 35.4362 -82.5418 North  Level Estimated
02:00PM 35.4362 -82.5418 North  Level Estimated
02:01PM 35.4362 -82.5418 North  Level Estimated
02:02PM 35.4362 -82.5418 North  Level Estimated
02:03PM 35.4362 -82.5418 North  Level Estimated
02:04PM 35.4362 -82.5418 North  Level Estimated